Eastpoint, Pennsylvania
Current Conditions -  °F | °C
As of 10:54 AM on Wednesday 26 Nov 2014 (Local Time) from KIPT Reporting Station
Heavy Snow Heavy Snow  
Wind Chill: 33°   Ceiling: 800
Heat Index: 33°   Visibility: 0.25mi
Dew Point: 32°   Wind: 0mph
Humidity: 96%   Direction: NA
Pressure: 30.13"   Gusts: NA
Location:  41.5548°N, 76.8911°W
Report Text: KIPT 261554Z 00000KT 1/4SM +SN FG VV008 01/00 A3013 RMK AO2 SLP210 P0010 T00060000
Loading
Personal Weather Stations






























Interactive Weather Map New forecast layout! Learn more

10-Day Weather Forecast

Advertisements
Track Severe Weather on mobile